sensor_id;sensor_type;location;lat;lon;timestamp;P1;durP1;ratioP1;P2;durP2;ratioP2
15393;SDS011;7795;47.986;11.868;2022-11-04T00:01:15;4.37;;;2.53;;
15393;SDS011;7795;47.986;11.868;2022-11-04T00:03:42;3.07;;;2.47;;
15393;SDS011;7795;47.986;11.868;2022-11-04T00:06:08;5.73;;;3.20;;
15393;SDS011;7795;47.986;11.868;2022-11-04T00:08:33;3.70;;;3.07;;
15393;SDS011;7795;47.986;11.868;2022-11-04T00:10:59;4.07;;;3.10;;
15393;SDS011;7795;47.986;11.868;2022-11-04T00:13:44;3.37;;;2.73;;
15393;SDS011;7795;47.986;11.868;2022-11-04T00:16:11;4.00;;;3.00;;
15393;SDS011;7795;47.986;11.868;2022-11-04T00:18:58;5.90;;;3.43;;
15393;SDS011;7795;47.986;11.868;2022-11-04T00:21:24;5.23;;;3.10;;
15393;SDS011;7795;47.986;11.868;2022-11-04T00:24:09;3.83;;;3.10;;
15393;SDS011;7795;47.986;11.868;2022-11-04T00:26:54;3.73;;;2.90;;
15393;SDS011;7795;47.986;11.868;2022-11-04T00:29:39;4.07;;;3.00;;
15393;SDS011;7795;47.986;11.868;2022-11-04T00:32:05;3.50;;;2.80;;
15393;SDS011;7795;47.986;11.868;2022-11-04T00:34:50;4.10;;;3.00;;
15393;SDS011;7795;47.986;11.868;2022-11-04T00:37:16;4.50;;;2.97;;
15393;SDS011;7795;47.986;11.868;2022-11-04T00:39:42;3.40;;;3.10;;
15393;SDS011;7795;47.986;11.868;2022-11-04T00:42:07;5.60;;;2.80;;
15393;SDS011;7795;47.986;11.868;2022-11-04T00:44:33;3.20;;;2.43;;
15393;SDS011;7795;47.986;11.868;2022-11-04T00:46:59;3.87;;;2.77;;
15393;SDS011;7795;47.986;11.868;2022-11-04T00:49:24;3.37;;;2.60;;
15393;SDS011;7795;47.986;11.868;2022-11-04T00:51:52;2.43;;;2.20;;
15393;SDS011;7795;47.986;11.868;2022-11-04T00:54:18;2.77;;;2.37;;
15393;SDS011;7795;47.986;11.868;2022-11-04T00:56:43;3.63;;;2.40;;
15393;SDS011;7795;47.986;11.868;2022-11-04T00:59:09;2.87;;;1.93;;
15393;SDS011;7795;47.986;11.868;2022-11-04T01:01:35;2.40;;;2.10;;
15393;SDS011;7795;47.986;11.868;2022-11-04T01:04:01;2.33;;;2.00;;
15393;SDS011;7795;47.986;11.868;2022-11-04T01:06:26;2.00;;;1.63;;
15393;SDS011;7795;47.986;11.868;2022-11-04T01:08:55;2.20;;;2.00;;
15393;SDS011;7795;47.986;11.868;2022-11-04T01:11:21;2.03;;;1.70;;
15393;SDS011;7795;47.986;11.868;2022-11-04T01:13:48;2.27;;;2.07;;
15393;SDS011;7795;47.986;11.868;2022-11-04T01:16:15;3.07;;;1.80;;
15393;SDS011;7795;47.986;11.868;2022-11-04T01:18:41;2.20;;;1.87;;
15393;SDS011;7795;47.986;11.868;2022-11-04T01:21:07;1.67;;;1.43;;
15393;SDS011;7795;47.986;11.868;2022-11-04T01:23:35;1.40;;;1.30;;
15393;SDS011;7795;47.986;11.868;2022-11-04T01:26:04;3.20;;;1.70;;
15393;SDS011;7795;47.986;11.868;2022-11-04T01:28:30;1.37;;;1.27;;
15393;SDS011;7795;47.986;11.868;2022-11-04T01:30:56;1.40;;;1.30;;
15393;SDS011;7795;47.986;11.868;2022-11-04T01:33:22;2.80;;;1.43;;
15393;SDS011;7795;47.986;11.868;2022-11-04T01:35:49;1.20;;;1.07;;
15393;SDS011;7795;47.986;11.868;2022-11-04T01:38:14;2.77;;;1.20;;
15393;SDS011;7795;47.986;11.868;2022-11-04T01:40:40;1.43;;;1.30;;
15393;SDS011;7795;47.986;11.868;2022-11-04T01:43:10;1.70;;;1.40;;
15393;SDS011;7795;47.986;11.868;2022-11-04T01:45:38;1.23;;;1.10;;
15393;SDS011;7795;47.986;11.868;2022-11-04T01:48:04;1.67;;;1.33;;
15393;SDS011;7795;47.986;11.868;2022-11-04T01:50:35;2.20;;;1.27;;
15393;SDS011;7795;47.986;11.868;2022-11-04T01:53:02;1.40;;;1.30;;
15393;SDS011;7795;47.986;11.868;2022-11-04T01:55:32;2.13;;;1.10;;
15393;SDS011;7795;47.986;11.868;2022-11-04T01:58:00;1.30;;;1.20;;
15393;SDS011;7795;47.986;11.868;2022-11-04T02:00:31;1.20;;;1.10;;
15393;SDS011;7795;47.986;11.868;2022-11-04T02:02:58;3.13;;;1.50;;
15393;SDS011;7795;47.986;11.868;2022-11-04T02:05:27;1.37;;;0.83;;
15393;SDS011;7795;47.986;11.868;2022-11-04T02:07:54;1.40;;;1.30;;
15393;SDS011;7795;47.986;11.868;2022-11-04T02:10:22;0.97;;;0.97;;
15393;SDS011;7795;47.986;11.868;2022-11-04T02:12:50;1.30;;;1.03;;
15393;SDS011;7795;47.986;11.868;2022-11-04T02:15:17;1.13;;;1.03;;
15393;SDS011;7795;47.986;11.868;2022-11-04T02:18:11;2.20;;;1.10;;
15393;SDS011;7795;47.986;11.868;2022-11-04T02:21:03;1.47;;;0.83;;
15393;SDS011;7795;47.986;11.868;2022-11-04T02:29:45;1.20;;;0.93;;
15393;SDS011;7795;47.986;11.868;2022-11-04T02:32:22;0.80;;;0.80;;
15393;SDS011;7795;47.986;11.868;2022-11-04T02:34:58;1.63;;;0.90;;
15393;SDS011;7795;47.986;11.868;2022-11-04T02:37:32;1.03;;;0.77;;
15393;SDS011;7795;47.986;11.868;2022-11-04T02:40:05;0.70;;;0.70;;
15393;SDS011;7795;47.986;11.868;2022-11-04T02:42:41;1.13;;;0.90;;
15393;SDS011;7795;47.986;11.868;2022-11-04T02:45:18;1.27;;;0.70;;
15393;SDS011;7795;47.986;11.868;2022-11-04T02:47:48;0.80;;;0.70;;
15393;SDS011;7795;47.986;11.868;2022-11-04T02:50:19;1.03;;;0.83;;
15393;SDS011;7795;47.986;11.868;2022-11-04T02:52:53;0.60;;;0.60;;
15393;SDS011;7795;47.986;11.868;2022-11-04T02:55:24;0.73;;;0.73;;
15393;SDS011;7795;47.986;11.868;2022-11-04T02:57:52;0.70;;;0.60;;
15393;SDS011;7795;47.986;11.868;2022-11-04T03:00:23;0.90;;;0.70;;
15393;SDS011;7795;47.986;11.868;2022-11-04T03:02:50;1.07;;;0.80;;
15393;SDS011;7795;47.986;11.868;2022-11-04T03:05:18;0.73;;;0.73;;
15393;SDS011;7795;47.986;11.868;2022-11-04T03:07:46;1.50;;;1.03;;
15393;SDS011;7795;47.986;11.868;2022-11-04T03:10:15;0.77;;;0.70;;
15393;SDS011;7795;47.986;11.868;2022-11-04T03:12:47;0.80;;;0.80;;
15393;SDS011;7795;47.986;11.868;2022-11-04T03:15:18;1.03;;;0.70;;
15393;SDS011;7795;47.986;11.868;2022-11-04T03:17:51;0.70;;;0.70;;
15393;SDS011;7795;47.986;11.868;2022-11-04T03:20:22;0.70;;;0.70;;
15393;SDS011;7795;47.986;11.868;2022-11-04T03:22:51;0.50;;;0.50;;
15393;SDS011;7795;47.986;11.868;2022-11-04T03:25:23;0.70;;;0.60;;
15393;SDS011;7795;47.986;11.868;2022-11-04T03:27:53;0.57;;;0.57;;
15393;SDS011;7795;47.986;11.868;2022-11-04T03:30:26;0.63;;;0.50;;
15393;SDS011;7795;47.986;11.868;2022-11-04T03:33:02;0.70;;;0.70;;
15393;SDS011;7795;47.986;11.868;2022-11-04T03:35:34;0.50;;;0.50;;
15393;SDS011;7795;47.986;11.868;2022-11-04T03:38:00;1.03;;;0.60;;
15393;SDS011;7795;47.986;11.868;2022-11-04T03:40:26;0.60;;;0.60;;
15393;SDS011;7795;47.986;11.868;2022-11-04T03:42:54;0.73;;;0.70;;
15393;SDS011;7795;47.986;11.868;2022-11-04T03:45:24;0.67;;;0.67;;
15393;SDS011;7795;47.986;11.868;2022-11-04T03:47:50;0.60;;;0.60;;
15393;SDS011;7795;47.986;11.868;2022-11-04T03:50:19;0.73;;;0.73;;
15393;SDS011;7795;47.986;11.868;2022-11-04T03:52:50;0.70;;;0.70;;
15393;SDS011;7795;47.986;11.868;2022-11-04T03:55:16;0.80;;;0.80;;
15393;SDS011;7795;47.986;11.868;2022-11-04T03:57:47;0.70;;;0.70;;
15393;SDS011;7795;47.986;11.868;2022-11-04T04:00:16;0.80;;;0.80;;
15393;SDS011;7795;47.986;11.868;2022-11-04T04:02:54;1.17;;;0.90;;
15393;SDS011;7795;47.986;11.868;2022-11-04T04:05:33;1.00;;;0.70;;
15393;SDS011;7795;47.986;11.868;2022-11-04T04:08:13;0.70;;;0.70;;
15393;SDS011;7795;47.986;11.868;2022-11-04T04:10:55;0.80;;;0.80;;
15393;SDS011;7795;47.986;11.868;2022-11-04T04:13:30;2.30;;;0.80;;
15393;SDS011;7795;47.986;11.868;2022-11-04T04:16:03;0.43;;;0.43;;
15393;SDS011;7795;47.986;11.868;2022-11-04T04:18:35;0.60;;;0.53;;
15393;SDS011;7795;47.986;11.868;2022-11-04T04:21:07;0.70;;;0.60;;
15393;SDS011;7795;47.986;11.868;2022-11-04T04:23:37;0.67;;;0.50;;
15393;SDS011;7795;47.986;11.868;2022-11-04T04:26:24;0.93;;;0.83;;
15393;SDS011;7795;47.986;11.868;2022-11-04T04:29:09;1.03;;;0.73;;
15393;SDS011;7795;47.986;11.868;2022-11-04T04:31:36;0.80;;;0.80;;
15393;SDS011;7795;47.986;11.868;2022-11-04T04:34:17;1.90;;;0.80;;
15393;SDS011;7795;47.986;11.868;2022-11-04T04:36:48;1.43;;;0.77;;
15393;SDS011;7795;47.986;11.868;2022-11-04T04:39:19;0.63;;;0.63;;
15393;SDS011;7795;47.986;11.868;2022-11-04T04:42:06;0.50;;;0.50;;
15393;SDS011;7795;47.986;11.868;2022-11-04T04:44:51;0.60;;;0.60;;
15393;SDS011;7795;47.986;11.868;2022-11-04T04:47:23;1.50;;;0.90;;
15393;SDS011;7795;47.986;11.868;2022-11-04T04:49:55;1.10;;;1.00;;
15393;SDS011;7795;47.986;11.868;2022-11-04T04:52:23;1.57;;;0.80;;
15393;SDS011;7795;47.986;11.868;2022-11-04T04:54:51;0.80;;;0.73;;
15393;SDS011;7795;47.986;11.868;2022-11-04T04:57:16;1.00;;;0.90;;
15393;SDS011;7795;47.986;11.868;2022-11-04T04:59:42;0.97;;;0.70;;
15393;SDS011;7795;47.986;11.868;2022-11-04T05:02:08;0.87;;;0.80;;
15393;SDS011;7795;47.986;11.868;2022-11-04T05:04:34;0.80;;;0.80;;
15393;SDS011;7795;47.986;11.868;2022-11-04T05:06:59;2.43;;;0.90;;
15393;SDS011;7795;47.986;11.868;2022-11-04T05:09:27;0.83;;;0.83;;
15393;SDS011;7795;47.986;11.868;2022-11-04T05:11:52;1.07;;;0.80;;
15393;SDS011;7795;47.986;11.868;2022-11-04T05:14:18;0.80;;;0.80;;
15393;SDS011;7795;47.986;11.868;2022-11-04T05:16:44;1.47;;;1.10;;
15393;SDS011;7795;47.986;11.868;2022-11-04T05:19:09;1.47;;;1.00;;
15393;SDS011;7795;47.986;11.868;2022-11-04T05:21:35;2.00;;;0.93;;
15393;SDS011;7795;47.986;11.868;2022-11-04T05:24:01;0.83;;;0.83;;
15393;SDS011;7795;47.986;11.868;2022-11-04T05:26:29;2.00;;;1.10;;
15393;SDS011;7795;47.986;11.868;2022-11-04T05:28:55;2.40;;;1.30;;
15393;SDS011;7795;47.986;11.868;2022-11-04T05:31:21;2.60;;;1.73;;
15393;SDS011;7795;47.986;11.868;2022-11-04T05:33:46;1.70;;;1.30;;
15393;SDS011;7795;47.986;11.868;2022-11-04T05:36:12;3.10;;;1.80;;
15393;SDS011;7795;47.986;11.868;2022-11-04T05:38:39;3.27;;;1.30;;
15393;SDS011;7795;47.986;11.868;2022-11-04T05:41:06;3.23;;;1.20;;
15393;SDS011;7795;47.986;11.868;2022-11-04T05:43:35;1.83;;;1.27;;
15393;SDS011;7795;47.986;11.868;2022-11-04T05:46:01;1.20;;;1.10;;
15393;SDS011;7795;47.986;11.868;2022-11-04T05:48:27;1.67;;;0.90;;
15393;SDS011;7795;47.986;11.868;2022-11-04T05:50:53;2.43;;;1.30;;
15393;SDS011;7795;47.986;11.868;2022-11-04T05:53:19;2.30;;;1.40;;
15393;SDS011;7795;47.986;11.868;2022-11-04T05:55:45;1.37;;;1.03;;
15393;SDS011;7795;47.986;11.868;2022-11-04T05:58:11;5.20;;;1.10;;
15393;SDS011;7795;47.986;11.868;2022-11-04T06:00:38;3.93;;;1.10;;
15393;SDS011;7795;47.986;11.868;2022-11-04T06:03:03;1.80;;;1.00;;
15393;SDS011;7795;47.986;11.868;2022-11-04T06:05:29;2.33;;;0.97;;
15393;SDS011;7795;47.986;11.868;2022-11-04T06:07:56;1.93;;;1.07;;
15393;SDS011;7795;47.986;11.868;2022-11-04T06:10:21;1.53;;;0.73;;
15393;SDS011;7795;47.986;11.868;2022-11-04T06:12:48;1.17;;;0.90;;
15393;SDS011;7795;47.986;11.868;2022-11-04T06:15:15;2.60;;;0.87;;
15393;SDS011;7795;47.986;11.868;2022-11-04T06:17:42;1.00;;;0.90;;
15393;SDS011;7795;47.986;11.868;2022-11-04T06:20:08;1.07;;;0.80;;
15393;SDS011;7795;47.986;11.868;2022-11-04T06:22:34;1.73;;;1.03;;
15393;SDS011;7795;47.986;11.868;2022-11-04T06:25:00;2.73;;;1.20;;
15393;SDS011;7795;47.986;11.868;2022-11-04T06:27:26;2.40;;;1.37;;
15393;SDS011;7795;47.986;11.868;2022-11-04T06:29:51;1.07;;;0.97;;
15393;SDS011;7795;47.986;11.868;2022-11-04T06:32:17;2.93;;;1.10;;
15393;SDS011;7795;47.986;11.868;2022-11-04T06:34:44;1.60;;;1.10;;
15393;SDS011;7795;47.986;11.868;2022-11-04T06:37:10;1.40;;;1.10;;
15393;SDS011;7795;47.986;11.868;2022-11-04T06:39:36;1.43;;;0.90;;
15393;SDS011;7795;47.986;11.868;2022-11-04T06:42:03;1.37;;;1.20;;
15393;SDS011;7795;47.986;11.868;2022-11-04T06:44:29;1.77;;;1.67;;
15393;SDS011;7795;47.986;11.868;2022-11-04T06:46:55;1.93;;;1.70;;
15393;SDS011;7795;47.986;11.868;2022-11-04T06:49:21;1.40;;;1.27;;
15393;SDS011;7795;47.986;11.868;2022-11-04T06:51:48;1.87;;;0.90;;
15393;SDS011;7795;47.986;11.868;2022-11-04T06:54:16;1.07;;;0.97;;
15393;SDS011;7795;47.986;11.868;2022-11-04T06:56:42;0.97;;;0.80;;
15393;SDS011;7795;47.986;11.868;2022-11-04T06:59:08;4.00;;;1.40;;
15393;SDS011;7795;47.986;11.868;2022-11-04T07:01:39;2.27;;;1.03;;
15393;SDS011;7795;47.986;11.868;2022-11-04T07:04:05;3.00;;;1.10;;
15393;SDS011;7795;47.986;11.868;2022-11-04T07:06:31;0.83;;;0.80;;
15393;SDS011;7795;47.986;11.868;2022-11-04T07:08:58;0.70;;;0.70;;
15393;SDS011;7795;47.986;11.868;2022-11-04T07:11:26;1.60;;;0.90;;
15393;SDS011;7795;47.986;11.868;2022-11-04T07:13:53;2.63;;;1.30;;
15393;SDS011;7795;47.986;11.868;2022-11-04T07:16:19;2.37;;;1.83;;
15393;SDS011;7795;47.986;11.868;2022-11-04T07:18:45;1.40;;;1.20;;
15393;SDS011;7795;47.986;11.868;2022-11-04T07:21:12;2.20;;;1.20;;
15393;SDS011;7795;47.986;11.868;2022-11-04T07:23:37;2.37;;;1.47;;
15393;SDS011;7795;47.986;11.868;2022-11-04T07:26:06;1.50;;;1.20;;
15393;SDS011;7795;47.986;11.868;2022-11-04T07:28:32;2.60;;;1.47;;
15393;SDS011;7795;47.986;11.868;2022-11-04T07:30:59;1.87;;;1.40;;
15393;SDS011;7795;47.986;11.868;2022-11-04T07:33:26;2.70;;;1.37;;
15393;SDS011;7795;47.986;11.868;2022-11-04T07:35:52;1.40;;;1.30;;
15393;SDS011;7795;47.986;11.868;2022-11-04T07:38:18;1.20;;;0.90;;
15393;SDS011;7795;47.986;11.868;2022-11-04T07:40:44;1.50;;;1.20;;
15393;SDS011;7795;47.986;11.868;2022-11-04T07:43:11;1.00;;;0.90;;
15393;SDS011;7795;47.986;11.868;2022-11-04T07:45:38;1.30;;;1.20;;
15393;SDS011;7795;47.986;11.868;2022-11-04T07:48:04;2.93;;;1.57;;
15393;SDS011;7795;47.986;11.868;2022-11-04T07:50:30;1.10;;;1.00;;
15393;SDS011;7795;47.986;11.868;2022-11-04T07:52:55;1.37;;;0.80;;
15393;SDS011;7795;47.986;11.868;2022-11-04T07:55:23;0.97;;;0.97;;
15393;SDS011;7795;47.986;11.868;2022-11-04T07:57:48;1.30;;;1.17;;
15393;SDS011;7795;47.986;11.868;2022-11-04T08:00:16;2.10;;;1.30;;
15393;SDS011;7795;47.986;11.868;2022-11-04T08:02:42;1.33;;;1.23;;
15393;SDS011;7795;47.986;11.868;2022-11-04T08:05:11;4.03;;;1.57;;
15393;SDS011;7795;47.986;11.868;2022-11-04T08:07:36;4.80;;;3.63;;
15393;SDS011;7795;47.986;11.868;2022-11-04T08:10:02;4.80;;;3.00;;
15393;SDS011;7795;47.986;11.868;2022-11-04T08:12:28;11.70;;;9.03;;
15393;SDS011;7795;47.986;11.868;2022-11-04T08:14:56;4.37;;;3.40;;
15393;SDS011;7795;47.986;11.868;2022-11-04T08:17:23;2.10;;;1.60;;
15393;SDS011;7795;47.986;11.868;2022-11-04T08:19:49;3.60;;;2.00;;
15393;SDS011;7795;47.986;11.868;2022-11-04T08:22:14;4.30;;;2.10;;
15393;SDS011;7795;47.986;11.868;2022-11-04T08:24:40;3.37;;;2.63;;
15393;SDS011;7795;47.986;11.868;2022-11-04T08:27:06;4.63;;;2.00;;
15393;SDS011;7795;47.986;11.868;2022-11-04T08:29:32;1.43;;;1.03;;
15393;SDS011;7795;47.986;11.868;2022-11-04T08:31:58;1.67;;;1.00;;
15393;SDS011;7795;47.986;11.868;2022-11-04T08:34:25;1.07;;;0.80;;
15393;SDS011;7795;47.986;11.868;2022-11-04T08:36:50;0.67;;;0.67;;
15393;SDS011;7795;47.986;11.868;2022-11-04T08:39:21;1.00;;;0.70;;
15393;SDS011;7795;47.986;11.868;2022-11-04T08:41:48;1.77;;;0.80;;
15393;SDS011;7795;47.986;11.868;2022-11-04T08:44:15;1.97;;;1.13;;
15393;SDS011;7795;47.986;11.868;2022-11-04T08:46:43;1.40;;;1.20;;
15393;SDS011;7795;47.986;11.868;2022-11-04T08:49:09;1.27;;;1.10;;
15393;SDS011;7795;47.986;11.868;2022-11-04T08:51:37;1.50;;;1.13;;
15393;SDS011;7795;47.986;11.868;2022-11-04T08:54:06;1.13;;;1.03;;
15393;SDS011;7795;47.986;11.868;2022-11-04T08:56:33;1.53;;;0.90;;
15393;SDS011;7795;47.986;11.868;2022-11-04T08:59:00;1.93;;;1.33;;
15393;SDS011;7795;47.986;11.868;2022-11-04T09:01:27;2.20;;;1.67;;
15393;SDS011;7795;47.986;11.868;2022-11-04T09:03:54;1.63;;;1.53;;
15393;SDS011;7795;47.986;11.868;2022-11-04T09:06:20;1.67;;;1.47;;
15393;SDS011;7795;47.986;11.868;2022-11-04T09:08:48;2.00;;;1.43;;
15393;SDS011;7795;47.986;11.868;2022-11-04T09:11:15;1.20;;;1.10;;
15393;SDS011;7795;47.986;11.868;2022-11-04T09:13:41;1.60;;;1.10;;
15393;SDS011;7795;47.986;11.868;2022-11-04T09:16:09;3.10;;;1.97;;
15393;SDS011;7795;47.986;11.868;2022-11-04T09:18:36;1.83;;;1.40;;
15393;SDS011;7795;47.986;11.868;2022-11-04T09:21:02;3.00;;;1.70;;
15393;SDS011;7795;47.986;11.868;2022-11-04T09:23:29;1.47;;;1.10;;
15393;SDS011;7795;47.986;11.868;2022-11-04T09:25:57;1.13;;;1.10;;
15393;SDS011;7795;47.986;11.868;2022-11-04T09:28:27;1.90;;;1.70;;
15393;SDS011;7795;47.986;11.868;2022-11-04T09:30:53;2.17;;;1.30;;
15393;SDS011;7795;47.986;11.868;2022-11-04T09:33:19;2.00;;;1.63;;
15393;SDS011;7795;47.986;11.868;2022-11-04T09:35:52;4.40;;;3.03;;
15393;SDS011;7795;47.986;11.868;2022-11-04T09:38:19;5.40;;;2.97;;
15393;SDS011;7795;47.986;11.868;2022-11-04T09:40:45;6.00;;;3.97;;
15393;SDS011;7795;47.986;11.868;2022-11-04T09:43:17;7.13;;;4.97;;
15393;SDS011;7795;47.986;11.868;2022-11-04T09:45:52;5.53;;;3.93;;
15393;SDS011;7795;47.986;11.868;2022-11-04T09:48:21;7.50;;;4.30;;
15393;SDS011;7795;47.986;11.868;2022-11-04T09:50:53;6.00;;;3.40;;
15393;SDS011;7795;47.986;11.868;2022-11-04T09:53:23;6.90;;;4.13;;
15393;SDS011;7795;47.986;11.868;2022-11-04T09:55:55;9.27;;;5.47;;
15393;SDS011;7795;47.986;11.868;2022-11-04T09:58:24;6.87;;;4.17;;
15393;SDS011;7795;47.986;11.868;2022-11-04T10:00:51;6.20;;;4.60;;
15393;SDS011;7795;47.986;11.868;2022-11-04T10:03:35;3.07;;;2.37;;
15393;SDS011;7795;47.986;11.868;2022-11-04T10:06:16;2.40;;;1.70;;
15393;SDS011;7795;47.986;11.868;2022-11-04T10:08:56;1.63;;;1.20;;
15393;SDS011;7795;47.986;11.868;2022-11-04T10:11:30;2.27;;;1.10;;
15393;SDS011;7795;47.986;11.868;2022-11-04T10:14:13;1.27;;;1.00;;
15393;SDS011;7795;47.986;11.868;2022-11-04T10:16:53;2.97;;;0.87;;
15393;SDS011;7795;47.986;11.868;2022-11-04T10:19:29;2.03;;;1.10;;
15393;SDS011;7795;47.986;11.868;2022-11-04T10:22:08;0.77;;;0.67;;
15393;SDS011;7795;47.986;11.868;2022-11-04T10:24:39;1.63;;;0.77;;
15393;SDS011;7795;47.986;11.868;2022-11-04T10:27:11;0.83;;;0.70;;
15393;SDS011;7795;47.986;11.868;2022-11-04T10:29:43;1.40;;;1.10;;
15393;SDS011;7795;47.986;11.868;2022-11-04T10:32:12;1.50;;;1.10;;
15393;SDS011;7795;47.986;11.868;2022-11-04T10:34:43;2.67;;;1.60;;
15393;SDS011;7795;47.986;11.868;2022-11-04T10:37:12;1.60;;;1.50;;
15393;SDS011;7795;47.986;11.868;2022-11-04T10:39:40;2.20;;;1.57;;
15393;SDS011;7795;47.986;11.868;2022-11-04T10:42:09;2.80;;;2.10;;
15393;SDS011;7795;47.986;11.868;2022-11-04T10:44:37;2.93;;;2.30;;
15393;SDS011;7795;47.986;11.868;2022-11-04T10:47:06;2.87;;;2.47;;
15393;SDS011;7795;47.986;11.868;2022-11-04T10:49:49;2.53;;;2.10;;
15393;SDS011;7795;47.986;11.868;2022-11-04T10:52:23;2.47;;;2.20;;
15393;SDS011;7795;47.986;11.868;2022-11-04T10:54:49;4.67;;;2.90;;
15393;SDS011;7795;47.986;11.868;2022-11-04T10:57:16;2.40;;;1.63;;
15393;SDS011;7795;47.986;11.868;2022-11-04T10:59:49;2.90;;;1.80;;
15393;SDS011;7795;47.986;11.868;2022-11-04T11:02:19;2.13;;;1.50;;
15393;SDS011;7795;47.986;11.868;2022-11-04T11:05:12;2.93;;;2.30;;
15393;SDS011;7795;47.986;11.868;2022-11-04T11:07:45;6.87;;;6.27;;
15393;SDS011;7795;47.986;11.868;2022-11-04T11:10:15;4.57;;;4.20;;
15393;SDS011;7795;47.986;11.868;2022-11-04T11:12:42;4.57;;;2.73;;
15393;SDS011;7795;47.986;11.868;2022-11-04T11:15:20;4.93;;;3.60;;
15393;SDS011;7795;47.986;11.868;2022-11-04T11:17:56;2.83;;;2.40;;
15393;SDS011;7795;47.986;11.868;2022-11-04T11:20:25;3.30;;;1.80;;
15393;SDS011;7795;47.986;11.868;2022-11-04T11:22:51;1.30;;;1.20;;
15393;SDS011;7795;47.986;11.868;2022-11-04T11:25:22;1.50;;;1.33;;
15393;SDS011;7795;47.986;11.868;2022-11-04T11:27:50;1.30;;;1.20;;
15393;SDS011;7795;47.986;11.868;2022-11-04T11:30:18;1.10;;;1.00;;
15393;SDS011;7795;47.986;11.868;2022-11-04T11:32:45;1.20;;;1.10;;
15393;SDS011;7795;47.986;11.868;2022-11-04T11:35:19;2.33;;;1.70;;
15393;SDS011;7795;47.986;11.868;2022-11-04T11:37:47;2.07;;;1.40;;
15393;SDS011;7795;47.986;11.868;2022-11-04T11:40:22;2.00;;;1.50;;
15393;SDS011;7795;47.986;11.868;2022-11-04T11:42:52;2.80;;;1.60;;
15393;SDS011;7795;47.986;11.868;2022-11-04T11:45:18;2.63;;;2.17;;
15393;SDS011;7795;47.986;11.868;2022-11-04T11:47:47;1.47;;;1.23;;
15393;SDS011;7795;47.986;11.868;2022-11-04T11:50:20;1.43;;;1.07;;
15393;SDS011;7795;47.986;11.868;2022-11-04T11:53:14;1.27;;;1.13;;
15393;SDS011;7795;47.986;11.868;2022-11-04T11:55:45;1.27;;;1.00;;
15393;SDS011;7795;47.986;11.868;2022-11-04T11:58:18;1.10;;;1.00;;
15393;SDS011;7795;47.986;11.868;2022-11-04T12:00:51;1.30;;;0.83;;
15393;SDS011;7795;47.986;11.868;2022-11-04T12:03:23;2.17;;;0.93;;
15393;SDS011;7795;47.986;11.868;2022-11-04T12:05:57;2.90;;;1.40;;
15393;SDS011;7795;47.986;11.868;2022-11-04T12:08:42;1.20;;;1.10;;
15393;SDS011;7795;47.986;11.868;2022-11-04T12:11:24;3.00;;;1.00;;
15393;SDS011;7795;47.986;11.868;2022-11-04T12:13:58;1.47;;;0.93;;
15393;SDS011;7795;47.986;11.868;2022-11-04T12:16:30;0.70;;;0.70;;
15393;SDS011;7795;47.986;11.868;2022-11-04T12:21:56;1.57;;;0.90;;
15393;SDS011;7795;47.986;11.868;2022-11-04T12:24:29;1.93;;;0.73;;
15393;SDS011;7795;47.986;11.868;2022-11-04T12:27:05;0.90;;;0.90;;
15393;SDS011;7795;47.986;11.868;2022-11-04T12:29:51;1.10;;;1.00;;
15393;SDS011;7795;47.986;11.868;2022-11-04T12:32:36;1.23;;;0.63;;
15393;SDS011;7795;47.986;11.868;2022-11-04T12:35:19;1.37;;;0.90;;
15393;SDS011;7795;47.986;11.868;2022-11-04T12:37:56;0.90;;;0.70;;
15393;SDS011;7795;47.986;11.868;2022-11-04T12:40:38;1.07;;;0.80;;
15393;SDS011;7795;47.986;11.868;2022-11-04T12:43:12;0.90;;;0.70;;
15393;SDS011;7795;47.986;11.868;2022-11-04T12:45:48;0.77;;;0.77;;
15393;SDS011;7795;47.986;11.868;2022-11-04T12:48:29;1.80;;;1.30;;
15393;SDS011;7795;47.986;11.868;2022-11-04T12:51:09;2.63;;;1.60;;
15393;SDS011;7795;47.986;11.868;2022-11-04T12:53:47;1.47;;;1.17;;
15393;SDS011;7795;47.986;11.868;2022-11-04T12:56:22;1.33;;;1.10;;
15393;SDS011;7795;47.986;11.868;2022-11-04T13:02:03;1.33;;;1.23;;
15393;SDS011;7795;47.986;11.868;2022-11-04T13:04:39;2.17;;;1.37;;
15393;SDS011;7795;47.986;11.868;2022-11-04T13:07:11;2.00;;;1.60;;
15393;SDS011;7795;47.986;11.868;2022-11-04T13:09:45;3.93;;;3.20;;
15393;SDS011;7795;47.986;11.868;2022-11-04T13:12:18;3.70;;;3.30;;
15393;SDS011;7795;47.986;11.868;2022-11-04T13:14:46;2.27;;;2.07;;
15393;SDS011;7795;47.986;11.868;2022-11-04T13:17:17;1.80;;;1.30;;
15393;SDS011;7795;47.986;11.868;2022-11-04T13:19:47;1.37;;;1.27;;
15393;SDS011;7795;47.986;11.868;2022-11-04T13:22:14;1.10;;;1.00;;
15393;SDS011;7795;47.986;11.868;2022-11-04T13:24:46;1.50;;;1.10;;
15393;SDS011;7795;47.986;11.868;2022-11-04T13:27:17;1.03;;;1.00;;
15393;SDS011;7795;47.986;11.868;2022-11-04T13:29:45;2.50;;;0.83;;
15393;SDS011;7795;47.986;11.868;2022-11-04T13:32:13;1.20;;;0.80;;
15393;SDS011;7795;47.986;11.868;2022-11-04T13:34:50;1.23;;;1.13;;
15393;SDS011;7795;47.986;11.868;2022-11-04T13:37:26;1.77;;;1.17;;
15393;SDS011;7795;47.986;11.868;2022-11-04T13:39:58;1.97;;;0.93;;
15393;SDS011;7795;47.986;11.868;2022-11-04T13:42:47;1.70;;;1.23;;
15393;SDS011;7795;47.986;11.868;2022-11-04T13:45:51;1.10;;;0.97;;
15393;SDS011;7795;47.986;11.868;2022-11-04T13:48:19;1.43;;;1.00;;
15393;SDS011;7795;47.986;11.868;2022-11-04T13:50:53;0.93;;;0.83;;
15393;SDS011;7795;47.986;11.868;2022-11-04T13:53:21;1.10;;;1.00;;
15393;SDS011;7795;47.986;11.868;2022-11-04T13:56:07;1.50;;;1.00;;
15393;SDS011;7795;47.986;11.868;2022-11-04T13:58:33;1.53;;;0.80;;
15393;SDS011;7795;47.986;11.868;2022-11-04T14:01:10;2.00;;;0.90;;
15393;SDS011;7795;47.986;11.868;2022-11-04T14:03:50;1.77;;;0.87;;
15393;SDS011;7795;47.986;11.868;2022-11-04T14:06:19;2.20;;;1.10;;
15393;SDS011;7795;47.986;11.868;2022-11-04T14:12:22;1.60;;;1.20;;
15393;SDS011;7795;47.986;11.868;2022-11-04T14:14:54;3.23;;;2.23;;
15393;SDS011;7795;47.986;11.868;2022-11-04T14:20:26;2.83;;;2.23;;
15393;SDS011;7795;47.986;11.868;2022-11-04T14:22:59;3.30;;;2.43;;
15393;SDS011;7795;47.986;11.868;2022-11-04T14:25:27;4.77;;;1.90;;
15393;SDS011;7795;47.986;11.868;2022-11-04T14:27:57;1.67;;;1.50;;
15393;SDS011;7795;47.986;11.868;2022-11-04T14:30:29;2.17;;;1.67;;
15393;SDS011;7795;47.986;11.868;2022-11-04T14:32:58;1.60;;;1.20;;
15393;SDS011;7795;47.986;11.868;2022-11-04T14:35:27;1.20;;;1.10;;
15393;SDS011;7795;47.986;11.868;2022-11-04T14:37:54;3.07;;;1.90;;
15393;SDS011;7795;47.986;11.868;2022-11-04T14:40:25;1.77;;;1.40;;
15393;SDS011;7795;47.986;11.868;2022-11-04T14:42:53;1.37;;;1.07;;
15393;SDS011;7795;47.986;11.868;2022-11-04T14:45:21;2.43;;;1.13;;
15393;SDS011;7795;47.986;11.868;2022-11-04T14:47:50;2.50;;;1.20;;
15393;SDS011;7795;47.986;11.868;2022-11-04T14:50:20;1.90;;;1.43;;
15393;SDS011;7795;47.986;11.868;2022-11-04T14:52:50;1.93;;;1.33;;
15393;SDS011;7795;47.986;11.868;2022-11-04T14:55:20;1.53;;;1.30;;
15393;SDS011;7795;47.986;11.868;2022-11-04T14:57:48;1.47;;;1.20;;
15393;SDS011;7795;47.986;11.868;2022-11-04T15:00:22;1.97;;;1.10;;
15393;SDS011;7795;47.986;11.868;2022-11-04T15:03:05;1.83;;;1.23;;
15393;SDS011;7795;47.986;11.868;2022-11-04T15:05:37;1.77;;;1.20;;
15393;SDS011;7795;47.986;11.868;2022-11-04T15:10:55;7.47;;;5.33;;
15393;SDS011;7795;47.986;11.868;2022-11-04T15:13:23;5.70;;;4.30;;
15393;SDS011;7795;47.986;11.868;2022-11-04T15:15:50;3.63;;;2.40;;
15393;SDS011;7795;47.986;11.868;2022-11-04T15:18:19;5.47;;;3.60;;
15393;SDS011;7795;47.986;11.868;2022-11-04T15:20:47;5.03;;;3.10;;
15393;SDS011;7795;47.986;11.868;2022-11-04T15:23:24;3.40;;;2.67;;
15393;SDS011;7795;47.986;11.868;2022-11-04T15:25:52;4.57;;;3.20;;
15393;SDS011;7795;47.986;11.868;2022-11-04T15:28:19;3.00;;;1.70;;